createdAt,value
2022-10-05T00:01:31.180Z,101140.44
2022-10-05T00:04:15.351Z,101131.63
2022-10-05T00:06:48.655Z,101128.97
2022-10-05T00:09:20.857Z,101132.53
2022-10-05T00:11:50.913Z,101130.81
2022-10-05T00:14:22.624Z,101126.41
2022-10-05T00:16:51.578Z,101132.56
2022-10-05T00:19:28.280Z,101116.72
2022-10-05T00:22:01.244Z,101124.66
2022-10-05T00:24:30.872Z,101114.09
2022-10-05T00:27:01.921Z,101127.28
2022-10-05T00:29:30.655Z,101127.28
2022-10-05T00:31:59.929Z,101122.03
2022-10-05T00:34:28.523Z,101116.72
2022-10-05T00:36:56.884Z,101120.25
2022-10-05T00:39:26.944Z,101119.34
2022-10-05T00:42:26.756Z,101118.53
2022-10-05T00:45:03.124Z,101080.00
2022-10-05T00:47:49.478Z,101125.59
2022-10-05T00:50:49.450Z,101130.94
2022-10-05T00:53:35.410Z,101082.72
2022-10-05T00:56:14.500Z,101129.19
2022-10-05T00:59:01.724Z,101090.63
2022-10-05T01:01:39.537Z,101095.91
2022-10-05T01:04:20.458Z,101110.00
2022-10-05T01:07:09.838Z,101121.38
2022-10-05T01:09:49.759Z,101115.22
2022-10-05T01:12:33.210Z,101120.50
2022-10-05T01:15:13.022Z,101111.69
2022-10-05T01:17:55.290Z,101028.44
2022-10-05T01:20:46.784Z,101106.47
2022-10-05T01:23:51.174Z,101109.09
2022-10-05T01:26:48.189Z,101110.88
2022-10-05T01:29:25.051Z,101102.97
2022-10-05T01:32:06.246Z,101098.59
2022-10-05T01:34:42.007Z,101086.34
2022-10-05T01:37:22.626Z,101081.94
2022-10-05T01:40:03.876Z,101085.50
2022-10-05T01:42:47.521Z,101106.63
2022-10-05T01:45:32.680Z,101095.19
2022-10-05T01:48:14.372Z,101111.88
2022-10-05T01:50:58.056Z,101111.00
2022-10-05T01:53:46.981Z,101103.09
2022-10-05T01:56:27.078Z,101108.38
2022-10-05T01:59:16.072Z,101104.88
2022-10-05T02:01:56.540Z,101126.03
2022-10-05T02:05:00.987Z,101120.75
2022-10-05T02:07:31.543Z,101113.72
2022-10-05T02:10:07.195Z,101097.97
2022-10-05T02:12:39.454Z,101117.31
2022-10-05T02:15:14.983Z,101124.34
2022-10-05T02:17:51.474Z,101078.72
2022-10-05T02:20:26.891Z,101063.81
2022-10-05T02:23:04.029Z,101091.84
2022-10-05T02:25:38.653Z,101085.75
2022-10-05T02:28:14.211Z,101035.75
2022-10-05T02:30:50.027Z,101096.31
2022-10-05T02:33:28.711Z,101097.19
2022-10-05T02:36:06.412Z,101077.00
2022-10-05T02:38:48.039Z,101097.19
2022-10-05T02:41:34.936Z,101097.19
2022-10-05T02:44:21.572Z,101093.69
2022-10-05T02:47:04.572Z,101092.78
2022-10-05T02:49:46.659Z,101078.75
2022-10-05T02:52:25.346Z,101102.44
2022-10-05T02:55:06.932Z,101100.69
2022-10-05T02:57:41.709Z,101105.09
2022-10-05T03:00:16.369Z,101091.94
2022-10-05T03:03:02.954Z,101101.59
2022-10-05T03:05:42.606Z,101102.47
2022-10-05T03:08:19.749Z,101088.47
2022-10-05T03:11:06.074Z,101063.88
2022-10-05T03:13:46.702Z,101108.66
2022-10-05T03:16:39.378Z,101091.13
2022-10-05T03:19:31.417Z,101097.28
2022-10-05T03:22:23.151Z,101027.97
2022-10-05T03:25:19.242Z,101109.56
2022-10-05T03:27:59.665Z,101110.47
2022-10-05T03:30:39.563Z,101121.88
2022-10-05T03:33:20.152Z,101096.41
2022-10-05T03:36:03.215Z,100993.78
2022-10-05T03:38:48.276Z,101107.84
2022-10-05T03:41:28.535Z,101075.38
2022-10-05T03:44:38.495Z,101107.84
2022-10-05T03:47:16.528Z,101109.59
2022-10-05T03:50:17.237Z,101113.16
2022-10-05T03:52:54.098Z,101056.94
2022-10-05T03:55:34.280Z,101113.13
2022-10-05T03:58:13.319Z,101067.47
2022-10-05T04:00:47.267Z,101111.34
2022-10-05T04:03:25.766Z,101114.88
2022-10-05T04:06:05.763Z,100944.69
2022-10-05T04:08:47.875Z,101099.06
2022-10-05T04:11:29.976Z,100832.44
2022-10-05T04:14:08.006Z,100955.19
2022-10-05T04:16:43.189Z,101094.69
2022-10-05T04:19:22.308Z,101092.06
2022-10-05T04:22:01.096Z,101022.75
2022-10-05T04:24:38.543Z,101088.53
2022-10-05T04:27:15.941Z,101087.66
2022-10-05T04:29:54.777Z,101090.28
2022-10-05T04:32:36.557Z,101097.28
2022-10-05T04:35:38.457Z,101085.91
2022-10-05T04:38:27.989Z,101077.13
2022-10-05T04:41:17.402Z,101088.50
2022-10-05T04:44:08.939Z,101081.47
2022-10-05T04:47:08.941Z,100932.38
2022-10-05T04:50:14.850Z,101077.94
2022-10-05T04:53:10.317Z,100904.31
2022-10-05T04:55:54.669Z,101072.66
2022-10-05T04:58:45.227Z,101072.66
2022-10-05T05:01:55.721Z,101074.38
2022-10-05T05:05:16.321Z,101069.94
2022-10-05T05:07:56.643Z,101069.94
2022-10-05T05:10:59.355Z,101062.03
2022-10-05T05:14:05.682Z,100999.75
2022-10-05T05:16:41.489Z,101078.72
2022-10-05T05:19:28.959Z,101079.59
2022-10-05T05:22:07.791Z,101076.91
2022-10-05T05:25:01.011Z,101069.00
2022-10-05T05:27:49.746Z,101061.97
2022-10-05T05:30:25.610Z,101069.00
2022-10-05T05:33:16.509Z,101070.75
2022-10-05T05:36:09.175Z,101073.44
2022-10-05T05:38:45.384Z,101069.03
2022-10-05T05:41:28.269Z,101055.03
2022-10-05T05:44:12.239Z,101029.59
2022-10-05T05:47:04.852Z,101068.16
2022-10-05T05:50:05.574Z,101053.25
2022-10-05T05:52:44.091Z,101069.88
2022-10-05T05:55:25.362Z,101068.97
2022-10-05T05:58:04.366Z,101068.06
2022-10-05T06:00:40.104Z,100969.84
2022-10-05T06:03:15.483Z,100983.84
2022-10-05T06:05:52.207Z,101073.22
2022-10-05T06:08:33.857Z,100994.31
2022-10-05T06:11:17.399Z,101000.38
2022-10-05T06:13:47.961Z,101072.03
2022-10-05T06:16:24.416Z,100968.59
2022-10-05T06:18:59.642Z,101076.13
2022-10-05T06:21:38.491Z,101075.06
2022-10-05T06:24:17.638Z,101068.69
2022-10-05T06:27:36.699Z,101042.09
2022-10-05T06:30:13.059Z,100986.69
2022-10-05T06:33:13.054Z,101038.19
2022-10-05T06:36:04.737Z,101068.66
2022-10-05T06:39:04.252Z,101060.47
2022-10-05T06:41:55.078Z,101034.88
2022-10-05T06:45:02.606Z,101069.41
2022-10-05T06:47:56.330Z,101070.75
2022-10-05T06:51:05.772Z,101022.31
2022-10-05T06:54:04.040Z,101076.44
2022-10-05T06:56:42.355Z,100893.75
2022-10-05T06:59:22.901Z,101067.59
2022-10-05T07:02:06.335Z,101069.47
2022-10-05T07:04:56.920Z,101067.16
2022-10-05T07:07:38.863Z,101090.91
2022-10-05T07:10:26.484Z,101088.28
2022-10-05T07:13:16.992Z,101082.03
2022-10-05T07:15:59.998Z,101083.69
2022-10-05T07:18:55.973Z,101095.84
2022-10-05T07:21:39.501Z,100958.31
2022-10-05T07:24:29.460Z,101089.06
2022-10-05T07:27:13.713Z,101088.81
2022-10-05T07:29:54.121Z,101070.25
2022-10-05T07:32:40.826Z,101049.94
2022-10-05T07:35:39.459Z,101108.25
2022-10-05T07:38:22.702Z,101100.97
2022-10-05T07:41:00.151Z,101093.88
2022-10-05T07:44:03.843Z,101063.09
2022-10-05T07:46:51.814Z,101067.16
2022-10-05T07:49:37.602Z,101077.28
2022-10-05T07:52:13.784Z,101104.06
2022-10-05T07:54:58.972Z,100965.72
2022-10-05T07:57:44.832Z,101081.25
2022-10-05T08:00:21.339Z,101092.63
2022-10-05T08:02:56.958Z,101101.50
2022-10-05T08:05:31.692Z,101083.28
2022-10-05T08:08:14.424Z,101093.22
2022-10-05T08:10:58.114Z,101051.25
2022-10-05T08:13:39.220Z,101084.28
2022-10-05T08:16:13.458Z,101105.06
2022-10-05T08:18:57.983Z,101099.31
2022-10-05T08:21:35.632Z,101026.28
2022-10-05T08:24:16.472Z,101098.47
2022-10-05T08:26:59.773Z,101094.94
2022-10-05T08:29:37.004Z,101094.81
2022-10-05T08:32:16.296Z,101087.50
2022-10-05T08:34:53.207Z,101024.13
2022-10-05T08:37:27.337Z,101082.97
2022-10-05T08:40:14.687Z,100876.50
2022-10-05T08:43:06.403Z,101038.97
2022-10-05T08:46:24.403Z,101069.38
2022-10-05T08:49:37.472Z,101063.66
2022-10-05T08:52:29.169Z,101076.53
2022-10-05T08:55:39.168Z,101080.72
2022-10-05T08:58:43.633Z,101076.03
2022-10-05T09:01:24.056Z,101079.53
2022-10-05T09:04:32.133Z,101085.06
2022-10-05T09:07:22.763Z,101077.63
2022-10-05T09:10:44.402Z,101050.69
2022-10-05T09:13:44.091Z,101066.66
2022-10-05T09:16:56.891Z,101073.75
2022-10-05T09:20:18.307Z,101041.00
2022-10-05T09:23:14.745Z,101068.56
2022-10-05T09:25:57.324Z,100954.47
2022-10-05T09:28:33.925Z,101067.84
2022-10-05T09:31:51.654Z,101037.13
2022-10-05T09:34:57.001Z,101027.31
2022-10-05T09:38:20.547Z,101053.47
2022-10-05T09:41:50.995Z,101049.25
2022-10-05T09:45:25.199Z,101055.41
2022-10-05T09:48:49.720Z,101043.03
2022-10-05T09:52:19.047Z,101051.44
2022-10-05T09:55:33.002Z,100977.47
2022-10-05T09:59:11.262Z,101023.25
2022-10-05T10:02:16.996Z,101040.00
2022-10-05T10:05:20.218Z,101042.09
2022-10-05T10:08:14.500Z,101032.72
2022-10-05T10:11:23.150Z,101005.84
2022-10-05T10:14:33.997Z,101002.97
2022-10-05T10:17:23.200Z,101023.06
2022-10-05T10:20:22.567Z,101012.81
2022-10-05T10:23:20.853Z,101018.41
2022-10-05T10:26:59.379Z,101019.59
2022-10-05T10:30:18.846Z,100966.78
2022-10-05T10:33:49.305Z,101013.72
2022-10-05T10:36:23.921Z,101019.38
2022-10-05T10:39:05.684Z,101016.09
2022-10-05T10:42:26.057Z,101004.69
2022-10-05T10:45:19.647Z,100980.16
2022-10-05T10:47:53.303Z,100995.56
2022-10-05T10:51:05.096Z,100993.63
2022-10-05T10:54:38.593Z,101010.09
2022-10-05T10:57:15.204Z,101003.34
2022-10-05T11:00:21.099Z,100997.84
2022-10-05T11:03:57.089Z,100978.25
2022-10-05T11:07:19.427Z,100954.13
2022-10-05T11:10:31.893Z,100998.78
2022-10-05T11:13:41.014Z,100992.81
2022-10-05T11:16:54.518Z,101003.22
2022-10-05T11:20:05.097Z,100992.97
2022-10-05T11:22:57.364Z,100990.59
2022-10-05T11:25:53.764Z,100988.94
2022-10-05T11:29:12.658Z,100994.09
2022-10-05T11:32:34.206Z,100979.91
2022-10-05T11:35:40.194Z,100978.00
2022-10-05T11:38:46.268Z,100974.31
2022-10-05T11:41:47.993Z,100970.38
2022-10-05T11:45:06.214Z,100968.63
2022-10-05T11:47:52.132Z,100959.22
2022-10-05T11:50:32.439Z,100965.34
2022-10-05T11:53:09.148Z,100943.78
2022-10-05T11:55:44.493Z,100958.31
2022-10-05T11:58:22.843Z,100922.19
2022-10-05T12:01:01.935Z,100951.69
2022-10-05T12:03:46.672Z,100946.78
2022-10-05T12:06:39.515Z,100939.16
2022-10-05T12:09:34.045Z,100950.81
2022-10-05T12:12:17.531Z,100943.81
2022-10-05T12:14:58.938Z,100897.38
2022-10-05T12:17:39.382Z,100935.66
2022-10-05T12:20:18.071Z,100922.63
2022-10-05T12:22:53.994Z,100871.03
2022-10-05T12:25:46.863Z,100909.63
2022-10-05T12:28:27.113Z,100807.06
2022-10-05T12:31:21.470Z,100822.06
2022-10-05T12:34:06.179Z,100890.19
2022-10-05T12:37:02.961Z,100894.72
2022-10-05T12:39:44.070Z,100907.63
2022-10-05T12:42:30.195Z,100914.41
2022-10-05T12:45:25.773Z,100891.19
2022-10-05T12:48:18.824Z,100906.69
2022-10-05T12:50:56.092Z,100904.09
2022-10-05T12:53:42.270Z,100864.84
2022-10-05T12:56:22.767Z,100903.25
2022-10-05T12:59:04.377Z,100900.72
2022-10-05T13:01:44.523Z,100879.91
2022-10-05T13:04:31.380Z,100894.66
2022-10-05T13:07:26.218Z,100873.91
2022-10-05T13:10:08.976Z,100895.59
2022-10-05T13:12:53.035Z,100863.16
2022-10-05T13:15:29.833Z,100896.13
2022-10-05T13:18:18.730Z,100881.31
2022-10-05T13:21:04.505Z,100738.00
2022-10-05T13:23:57.513Z,100890.31
2022-10-05T13:26:35.189Z,100894.00
2022-10-05T13:29:17.866Z,100888.16
2022-10-05T13:31:54.399Z,100728.72
2022-10-05T13:34:35.204Z,100877.00
2022-10-05T13:37:24.465Z,100890.38
2022-10-05T13:40:10.309Z,100794.94
2022-10-05T13:42:48.308Z,100855.59
2022-10-05T13:45:24.184Z,100765.09
2022-10-05T13:48:15.756Z,100855.31
2022-10-05T13:50:51.949Z,100892.59
2022-10-05T13:53:33.445Z,100888.16
2022-10-05T13:56:16.891Z,100764.84
2022-10-05T13:58:56.544Z,100840.66
2022-10-05T14:01:48.052Z,100856.72
2022-10-05T14:04:21.094Z,100818.59
2022-10-05T14:06:50.386Z,100816.03
2022-10-05T14:09:32.385Z,100839.22
2022-10-05T14:12:21.735Z,100855.50
2022-10-05T14:14:52.914Z,100855.88
2022-10-05T14:17:40.808Z,100856.25
2022-10-05T14:20:24.821Z,100795.97
2022-10-05T14:22:59.197Z,100753.84
2022-10-05T14:25:29.362Z,100810.78
2022-10-05T14:28:04.834Z,100847.03
2022-10-05T14:30:35.130Z,100845.09
2022-10-05T14:33:20.405Z,100817.47
2022-10-05T14:35:52.445Z,100841.56
2022-10-05T14:38:26.473Z,100845.06
2022-10-05T14:41:16.458Z,100771.41
2022-10-05T14:44:02.759Z,100794.13
2022-10-05T14:46:33.755Z,100847.78
2022-10-05T14:49:21.495Z,100834.28
2022-10-05T14:51:52.150Z,100850.09
2022-10-05T14:54:41.852Z,100825.38
2022-10-05T14:57:27.591Z,100823.31
2022-10-05T15:00:10.461Z,100842.19
2022-10-05T15:03:18.727Z,100842.91
2022-10-05T15:05:53.948Z,100816.28
2022-10-05T15:08:45.168Z,100840.31
2022-10-05T15:11:30.439Z,100829.59
2022-10-05T15:14:01.444Z,100832.34
2022-10-05T15:16:35.503Z,100839.84
2022-10-05T15:19:17.677Z,100788.19
2022-10-05T15:22:05.727Z,100828.50
2022-10-05T15:24:44.130Z,100831.50
2022-10-05T15:27:27.747Z,100789.53
2022-10-05T15:30:07.872Z,100799.28
2022-10-05T15:32:55.417Z,100812.59
2022-10-05T15:35:54.277Z,100755.44
2022-10-05T15:38:26.477Z,100802.50
2022-10-05T15:41:08.726Z,100807.38
2022-10-05T15:43:48.436Z,100810.50
2022-10-05T15:46:23.450Z,100795.13
2022-10-05T15:49:08.470Z,100758.94
2022-10-05T15:51:54.325Z,100772.16
2022-10-05T15:54:51.073Z,100795.00
2022-10-05T15:57:31.373Z,100778.06
2022-10-05T16:00:04.809Z,100797.66
2022-10-05T16:02:45.582Z,100777.19
2022-10-05T16:05:49.257Z,100789.91
2022-10-05T16:08:55.097Z,100787.44
2022-10-05T16:11:37.488Z,100797.38
2022-10-05T16:14:22.896Z,100795.81
2022-10-05T16:17:13.615Z,100791.81
2022-10-05T16:20:03.130Z,100777.34
2022-10-05T16:22:46.685Z,100767.34
2022-10-05T16:25:26.961Z,100754.53
2022-10-05T16:28:16.669Z,100794.09
2022-10-05T16:31:00.234Z,100786.63
2022-10-05T16:33:54.250Z,100757.31
2022-10-05T16:36:44.626Z,100765.38
2022-10-05T16:39:23.079Z,100769.09
2022-10-05T16:42:02.559Z,100785.78
2022-10-05T16:44:44.411Z,100784.47
2022-10-05T16:47:43.674Z,100788.84
2022-10-05T16:50:25.482Z,100746.47
2022-10-05T16:53:01.169Z,100754.63
2022-10-05T16:55:40.645Z,100796.94
2022-10-05T16:58:20.280Z,100745.69
2022-10-05T17:01:09.381Z,100767.69
2022-10-05T17:03:59.202Z,100799.41
2022-10-05T17:06:54.538Z,100800.38
2022-10-05T17:09:56.062Z,100750.09
2022-10-05T17:12:46.651Z,100740.72
2022-10-05T17:15:37.695Z,100776.53
2022-10-05T17:18:29.879Z,100752.19
2022-10-05T17:21:08.095Z,100800.53
2022-10-05T17:23:54.942Z,100789.16
2022-10-05T17:26:56.401Z,100790.50
2022-10-05T17:29:47.565Z,100751.34
2022-10-05T17:32:39.560Z,100723.41
2022-10-05T17:35:22.209Z,100796.50
2022-10-05T17:38:20.304Z,100755.66
2022-10-05T17:41:25.346Z,100795.88
2022-10-05T17:44:30.746Z,100786.09
2022-10-05T17:47:01.537Z,100780.97
2022-10-05T17:50:17.018Z,100714.69
2022-10-05T17:53:05.188Z,100783.50
2022-10-05T17:55:46.937Z,100778.19
2022-10-05T17:59:02.599Z,100779.84
2022-10-05T18:01:38.597Z,100769.44
2022-10-05T18:04:42.294Z,100794.66
2022-10-05T18:07:23.878Z,100789.09
2022-10-05T18:10:00.207Z,100797.09
2022-10-05T18:12:48.552Z,100719.59
2022-10-05T18:15:48.684Z,100799.97
2022-10-05T18:18:57.268Z,100796.53
2022-10-05T18:21:39.301Z,100784.28
2022-10-05T18:24:53.115Z,100745.22
2022-10-05T18:28:00.827Z,100717.59
2022-10-05T18:30:39.544Z,100770.94
2022-10-05T18:33:42.991Z,100798.75
2022-10-05T18:36:55.962Z,100799.59
2022-10-05T18:39:59.084Z,100807.66
2022-10-05T18:42:40.355Z,100776.28
2022-10-05T18:45:25.532Z,100784.41
2022-10-05T18:48:15.299Z,100772.28
2022-10-05T18:50:56.437Z,100814.13
2022-10-05T18:53:40.001Z,100823.09
2022-10-05T18:56:25.721Z,100820.53
2022-10-05T18:59:18.820Z,100814.47
2022-10-05T19:02:11.543Z,100822.59
2022-10-05T19:04:55.797Z,100822.63
2022-10-05T19:07:43.080Z,100826.16
2022-10-05T19:10:26.475Z,100822.59
2022-10-05T19:13:16.736Z,100776.66
2022-10-05T19:15:58.054Z,100827.13
2022-10-05T19:19:04.922Z,100773.16
2022-10-05T19:21:49.887Z,100835.22
2022-10-05T19:24:43.647Z,100844.09
2022-10-05T19:27:27.473Z,100839.75
2022-10-05T19:30:20.115Z,100844.28
2022-10-05T19:33:14.766Z,100800.00
2022-10-05T19:36:03.895Z,100812.41
2022-10-05T19:38:42.552Z,100682.59
2022-10-05T19:41:18.823Z,100856.38
2022-10-05T19:44:21.110Z,100840.81
2022-10-05T19:47:02.403Z,100779.75
2022-10-05T19:49:49.511Z,100854.09
2022-10-05T19:52:31.062Z,100807.09
2022-10-05T19:55:13.171Z,100788.88
2022-10-05T19:57:49.005Z,100681.63
2022-10-05T20:00:26.343Z,100862.97
2022-10-05T20:03:12.955Z,100866.53
2022-10-05T20:05:42.039Z,100806.31
2022-10-05T20:08:18.175Z,100758.13
2022-10-05T20:11:04.496Z,100830.66
2022-10-05T20:13:35.158Z,100876.09
2022-10-05T20:16:50.727Z,100880.75
2022-10-05T20:19:53.719Z,100881.47
2022-10-05T20:22:32.792Z,100886.03
2022-10-05T20:25:03.702Z,100888.75
2022-10-05T20:27:47.570Z,100891.47
2022-10-05T20:30:18.961Z,100873.28
2022-10-05T20:32:50.619Z,100860.19
2022-10-05T20:35:22.387Z,100765.16
2022-10-05T20:37:51.042Z,100893.25
2022-10-05T20:40:20.327Z,100791.31
2022-10-05T20:42:49.109Z,100903.19
2022-10-05T20:45:17.705Z,100901.41
2022-10-05T20:47:47.329Z,100851.91
2022-10-05T20:50:17.390Z,100897.19
2022-10-05T20:52:45.800Z,100724.41
2022-10-05T20:55:14.243Z,100826.56
2022-10-05T20:57:42.637Z,100904.13
2022-10-05T21:00:13.669Z,100916.50
2022-10-05T21:02:42.328Z,100917.38
2022-10-05T21:05:10.884Z,100914.69
2022-10-05T21:07:40.941Z,100893.97
2022-10-05T21:10:10.275Z,100899.97
2022-10-05T21:12:38.837Z,100923.63
2022-10-05T21:15:08.360Z,100928.88
2022-10-05T21:17:38.058Z,100929.63
2022-10-05T21:20:07.397Z,100936.66
2022-10-05T21:22:36.391Z,100930.44
2022-10-05T21:25:09.006Z,100901.69
2022-10-05T21:27:37.392Z,100934.88
2022-10-05T21:30:06.680Z,100710.38
2022-10-05T21:32:36.274Z,100942.66
2022-10-05T21:35:08.674Z,100903.31
2022-10-05T21:37:37.159Z,100827.53
2022-10-05T21:40:07.864Z,100922.56
2022-10-05T21:42:36.317Z,100862.03
2022-10-05T21:45:05.326Z,100949.19
2022-10-05T21:47:33.757Z,100934.25
2022-10-05T21:50:06.212Z,100950.84
2022-10-05T21:52:36.196Z,100961.38
2022-10-05T21:55:07.753Z,100906.09
2022-10-05T21:57:37.194Z,100903.38
2022-10-05T22:00:10.503Z,100941.88
2022-10-05T22:02:38.935Z,100907.75
2022-10-05T22:05:07.671Z,100935.81
2022-10-05T22:07:36.140Z,100831.09
2022-10-05T22:10:06.762Z,100973.34
2022-10-05T22:12:35.083Z,100696.81
2022-10-05T22:15:04.912Z,100976.13
2022-10-05T22:17:33.826Z,100879.97
2022-10-05T22:20:03.295Z,100970.69
2022-10-05T22:22:33.145Z,100969.81
2022-10-05T22:25:01.866Z,100977.75
2022-10-05T22:27:33.548Z,100915.72
2022-10-05T22:30:03.717Z,100967.97
2022-10-05T22:32:32.041Z,100973.31
2022-10-05T22:35:00.796Z,100984.03
2022-10-05T22:37:34.907Z,100834.69
2022-10-05T22:40:03.559Z,100985.72
2022-10-05T22:42:33.240Z,100877.41
2022-10-05T22:45:01.541Z,100776.34
2022-10-05T22:47:29.861Z,100979.56
2022-10-05T22:49:58.663Z,100988.50
2022-10-05T22:52:29.585Z,100917.72
2022-10-05T22:54:58.274Z,100979.56
2022-10-05T22:57:26.891Z,100986.59
2022-10-05T22:59:56.564Z,100983.06
2022-10-05T23:02:24.887Z,100986.69
2022-10-05T23:04:53.578Z,100986.66
2022-10-05T23:07:21.814Z,100988.34
2022-10-05T23:09:50.208Z,100936.97
2022-10-05T23:12:21.132Z,100991.97
2022-10-05T23:14:49.765Z,100991.13
2022-10-05T23:17:22.686Z,100934.53
2022-10-05T23:19:51.395Z,101002.63
2022-10-05T23:22:20.767Z,100994.75
2022-10-05T23:24:49.416Z,100998.31
2022-10-05T23:27:17.835Z,100999.31
2022-10-05T23:29:46.151Z,100978.34
2022-10-05T23:32:16.100Z,101008.19
2022-10-05T23:34:48.192Z,100766.28
2022-10-05T23:37:19.168Z,100709.59
2022-10-05T23:39:47.829Z,101005.34
2022-10-05T23:42:16.100Z,100990.34
2022-10-05T23:44:44.736Z,101006.91
2022-10-05T23:47:13.062Z,101005.06
2022-10-05T23:49:41.367Z,101000.66
2022-10-05T23:52:10.989Z,100939.78
2022-10-05T23:54:39.308Z,100903.78
2022-10-05T23:57:07.588Z,101019.16
2022-10-05T23:59:36.227Z,101016.50
